sensor_id;sensor_type;location;lat;lon;timestamp;P1;durP1;ratioP1;P2;durP2;ratioP2
35558;SDS011;21661;50.794;-1.066;2023-02-13T00:01:03;27.00;;;14.98;;
35558;SDS011;21661;50.794;-1.066;2023-02-13T00:03:29;29.73;;;15.30;;
35558;SDS011;21661;50.794;-1.066;2023-02-13T00:05:55;28.70;;;15.95;;
35558;SDS011;21661;50.794;-1.066;2023-02-13T00:08:20;28.95;;;14.90;;
35558;SDS011;21661;50.794;-1.066;2023-02-13T00:10:46;27.60;;;14.38;;
35558;SDS011;21661;50.794;-1.066;2023-02-13T00:13:12;27.58;;;14.90;;
35558;SDS011;21661;50.794;-1.066;2023-02-13T00:15:38;28.42;;;15.23;;
35558;SDS011;21661;50.794;-1.066;2023-02-13T00:18:03;29.05;;;15.82;;
35558;SDS011;21661;50.794;-1.066;2023-02-13T00:20:29;27.25;;;14.55;;
35558;SDS011;21661;50.794;-1.066;2023-02-13T00:22:55;31.45;;;15.88;;
35558;SDS011;21661;50.794;-1.066;2023-02-13T00:25:22;30.73;;;15.70;;
35558;SDS011;21661;50.794;-1.066;2023-02-13T00:27:49;28.60;;;15.55;;
35558;SDS011;21661;50.794;-1.066;2023-02-13T00:30:15;30.48;;;15.20;;
35558;SDS011;21661;50.794;-1.066;2023-02-13T00:32:41;33.50;;;16.02;;
35558;SDS011;21661;50.794;-1.066;2023-02-13T00:35:07;27.88;;;15.90;;
35558;SDS011;21661;50.794;-1.066;2023-02-13T00:37:32;33.05;;;16.45;;
35558;SDS011;21661;50.794;-1.066;2023-02-13T00:39:58;33.88;;;15.27;;
35558;SDS011;21661;50.794;-1.066;2023-02-13T00:42:24;33.40;;;16.13;;
35558;SDS011;21661;50.794;-1.066;2023-02-13T00:44:50;32.05;;;16.02;;
35558;SDS011;21661;50.794;-1.066;2023-02-13T00:47:17;30.60;;;16.23;;
35558;SDS011;21661;50.794;-1.066;2023-02-13T00:49:43;30.90;;;15.32;;
35558;SDS011;21661;50.794;-1.066;2023-02-13T00:52:09;33.60;;;15.52;;
35558;SDS011;21661;50.794;-1.066;2023-02-13T00:54:34;30.38;;;15.20;;
35558;SDS011;21661;50.794;-1.066;2023-02-13T00:57:00;31.83;;;15.10;;
35558;SDS011;21661;50.794;-1.066;2023-02-13T00:59:26;31.27;;;16.15;;
35558;SDS011;21661;50.794;-1.066;2023-02-13T01:01:51;33.78;;;16.45;;
35558;SDS011;21661;50.794;-1.066;2023-02-13T01:04:17;33.53;;;17.75;;
35558;SDS011;21661;50.794;-1.066;2023-02-13T01:06:43;34.17;;;17.05;;
35558;SDS011;21661;50.794;-1.066;2023-02-13T01:09:08;33.92;;;16.13;;
35558;SDS011;21661;50.794;-1.066;2023-02-13T01:11:34;35.28;;;16.17;;
35558;SDS011;21661;50.794;-1.066;2023-02-13T01:13:59;37.47;;;17.45;;
35558;SDS011;21661;50.794;-1.066;2023-02-13T01:16:25;36.83;;;16.00;;
35558;SDS011;21661;50.794;-1.066;2023-02-13T01:18:51;37.40;;;17.58;;
35558;SDS011;21661;50.794;-1.066;2023-02-13T01:21:17;37.08;;;17.48;;
35558;SDS011;21661;50.794;-1.066;2023-02-13T01:23:44;41.10;;;18.50;;
35558;SDS011;21661;50.794;-1.066;2023-02-13T01:26:16;38.63;;;19.23;;
35558;SDS011;21661;50.794;-1.066;2023-02-13T01:28:46;43.45;;;19.48;;
35558;SDS011;21661;50.794;-1.066;2023-02-13T01:31:12;35.47;;;17.50;;
35558;SDS011;21661;50.794;-1.066;2023-02-13T01:33:38;39.15;;;19.85;;
35558;SDS011;21661;50.794;-1.066;2023-02-13T01:36:10;41.15;;;18.85;;
35558;SDS011;21661;50.794;-1.066;2023-02-13T01:38:38;38.85;;;20.00;;
35558;SDS011;21661;50.794;-1.066;2023-02-13T01:41:04;39.55;;;19.20;;
35558;SDS011;21661;50.794;-1.066;2023-02-13T01:46:16;38.60;;;18.90;;
35558;SDS011;21661;50.794;-1.066;2023-02-13T01:48:55;44.00;;;20.67;;
35558;SDS011;21661;50.794;-1.066;2023-02-13T01:51:29;41.22;;;19.90;;
35558;SDS011;21661;50.794;-1.066;2023-02-13T01:54:08;39.72;;;19.48;;
35558;SDS011;21661;50.794;-1.066;2023-02-13T01:56:39;37.73;;;18.50;;
35558;SDS011;21661;50.794;-1.066;2023-02-13T01:59:11;41.65;;;19.73;;
35558;SDS011;21661;50.794;-1.066;2023-02-13T02:01:39;42.92;;;18.80;;
35558;SDS011;21661;50.794;-1.066;2023-02-13T02:04:09;40.47;;;19.67;;
35558;SDS011;21661;50.794;-1.066;2023-02-13T02:06:44;42.65;;;19.13;;
35558;SDS011;21661;50.794;-1.066;2023-02-13T02:09:14;41.83;;;19.50;;
35558;SDS011;21661;50.794;-1.066;2023-02-13T02:14:30;41.90;;;19.35;;
35558;SDS011;21661;50.794;-1.066;2023-02-13T02:16:56;49.00;;;20.20;;
35558;SDS011;21661;50.794;-1.066;2023-02-13T02:35:27;40.45;;;19.02;;
35558;SDS011;21661;50.794;-1.066;2023-02-13T02:48:32;42.58;;;19.23;;
35558;SDS011;21661;50.794;-1.066;2023-02-13T02:51:32;45.72;;;19.73;;
35558;SDS011;21661;50.794;-1.066;2023-02-13T02:54:23;38.58;;;18.80;;
35558;SDS011;21661;50.794;-1.066;2023-02-13T02:57:23;41.17;;;19.20;;
35558;SDS011;21661;50.794;-1.066;2023-02-13T03:00:13;43.10;;;17.48;;
35558;SDS011;21661;50.794;-1.066;2023-02-13T03:03:04;41.97;;;19.50;;
35558;SDS011;21661;50.794;-1.066;2023-02-13T03:05:50;43.47;;;19.05;;
35558;SDS011;21661;50.794;-1.066;2023-02-13T03:08:37;39.05;;;18.45;;
35558;SDS011;21661;50.794;-1.066;2023-02-13T03:11:30;42.42;;;19.15;;
35558;SDS011;21661;50.794;-1.066;2023-02-13T03:14:16;40.00;;;18.23;;
35558;SDS011;21661;50.794;-1.066;2023-02-13T03:16:45;42.00;;;19.17;;
35558;SDS011;21661;50.794;-1.066;2023-02-13T03:19:34;39.65;;;18.25;;
35558;SDS011;21661;50.794;-1.066;2023-02-13T03:25:17;41.15;;;18.75;;
35558;SDS011;21661;50.794;-1.066;2023-02-13T03:35:52;44.65;;;21.10;;
35558;SDS011;21661;50.794;-1.066;2023-02-13T03:39:08;42.47;;;20.02;;
35558;SDS011;21661;50.794;-1.066;2023-02-13T03:41:41;48.40;;;23.08;;
35558;SDS011;21661;50.794;-1.066;2023-02-13T03:47:08;51.50;;;25.25;;
35558;SDS011;21661;50.794;-1.066;2023-02-13T03:49:48;52.95;;;26.27;;
35558;SDS011;21661;50.794;-1.066;2023-02-13T03:52:31;53.35;;;26.52;;
35558;SDS011;21661;50.794;-1.066;2023-02-13T03:55:05;55.60;;;26.50;;
35558;SDS011;21661;50.794;-1.066;2023-02-13T03:58:03;55.00;;;26.73;;
35558;SDS011;21661;50.794;-1.066;2023-02-13T04:00:53;55.05;;;26.10;;
35558;SDS011;21661;50.794;-1.066;2023-02-13T04:06:13;55.53;;;26.42;;
35558;SDS011;21661;50.794;-1.066;2023-02-13T04:08:44;57.42;;;26.63;;
35558;SDS011;21661;50.794;-1.066;2023-02-13T04:13:49;59.50;;;26.75;;
35558;SDS011;21661;50.794;-1.066;2023-02-13T04:16:22;57.75;;;26.38;;
35558;SDS011;21661;50.794;-1.066;2023-02-13T04:19:04;55.85;;;26.65;;
35558;SDS011;21661;50.794;-1.066;2023-02-13T04:21:32;58.85;;;27.23;;
35558;SDS011;21661;50.794;-1.066;2023-02-13T04:24:02;55.90;;;27.25;;
35558;SDS011;21661;50.794;-1.066;2023-02-13T04:26:38;55.00;;;27.05;;
35558;SDS011;21661;50.794;-1.066;2023-02-13T04:29:06;57.92;;;27.00;;
35558;SDS011;21661;50.794;-1.066;2023-02-13T04:31:32;59.42;;;27.73;;
35558;SDS011;21661;50.794;-1.066;2023-02-13T04:33:58;57.63;;;27.48;;
35558;SDS011;21661;50.794;-1.066;2023-02-13T04:36:23;55.92;;;26.60;;
35558;SDS011;21661;50.794;-1.066;2023-02-13T04:38:49;55.08;;;26.85;;
35558;SDS011;21661;50.794;-1.066;2023-02-13T04:41:15;59.20;;;27.10;;
35558;SDS011;21661;50.794;-1.066;2023-02-13T04:43:41;56.10;;;25.92;;
35558;SDS011;21661;50.794;-1.066;2023-02-13T04:46:06;59.25;;;27.42;;
35558;SDS011;21661;50.794;-1.066;2023-02-13T04:48:32;56.63;;;25.95;;
35558;SDS011;21661;50.794;-1.066;2023-02-13T04:50:58;53.28;;;26.73;;
35558;SDS011;21661;50.794;-1.066;2023-02-13T04:53:23;58.85;;;28.00;;
35558;SDS011;21661;50.794;-1.066;2023-02-13T04:55:49;54.15;;;26.45;;
35558;SDS011;21661;50.794;-1.066;2023-02-13T04:58:16;64.07;;;27.30;;
35558;SDS011;21661;50.794;-1.066;2023-02-13T05:00:41;58.30;;;26.15;;
35558;SDS011;21661;50.794;-1.066;2023-02-13T05:03:07;55.72;;;26.83;;
35558;SDS011;21661;50.794;-1.066;2023-02-13T05:05:36;54.88;;;25.95;;
35558;SDS011;21661;50.794;-1.066;2023-02-13T05:08:02;56.75;;;26.30;;
35558;SDS011;21661;50.794;-1.066;2023-02-13T05:10:28;59.90;;;28.48;;
35558;SDS011;21661;50.794;-1.066;2023-02-13T05:12:54;54.22;;;25.20;;
35558;SDS011;21661;50.794;-1.066;2023-02-13T05:15:19;54.85;;;26.40;;
35558;SDS011;21661;50.794;-1.066;2023-02-13T05:17:47;56.72;;;25.38;;
35558;SDS011;21661;50.794;-1.066;2023-02-13T05:20:13;59.33;;;27.60;;
35558;SDS011;21661;50.794;-1.066;2023-02-13T05:22:47;56.60;;;25.70;;
35558;SDS011;21661;50.794;-1.066;2023-02-13T05:25:33;57.35;;;26.50;;
35558;SDS011;21661;50.794;-1.066;2023-02-13T05:27:59;57.95;;;27.27;;
35558;SDS011;21661;50.794;-1.066;2023-02-13T05:30:25;55.95;;;25.55;;
35558;SDS011;21661;50.794;-1.066;2023-02-13T05:32:51;57.47;;;26.98;;
35558;SDS011;21661;50.794;-1.066;2023-02-13T05:35:17;57.85;;;26.00;;
35558;SDS011;21661;50.794;-1.066;2023-02-13T05:37:43;57.58;;;27.63;;
35558;SDS011;21661;50.794;-1.066;2023-02-13T05:40:09;58.08;;;27.23;;
35558;SDS011;21661;50.794;-1.066;2023-02-13T05:42:35;58.15;;;27.00;;
35558;SDS011;21661;50.794;-1.066;2023-02-13T05:45:01;60.92;;;27.40;;
35558;SDS011;21661;50.794;-1.066;2023-02-13T05:47:27;60.10;;;25.73;;
35558;SDS011;21661;50.794;-1.066;2023-02-13T05:49:53;54.17;;;25.30;;
35558;SDS011;21661;50.794;-1.066;2023-02-13T05:52:18;60.13;;;26.45;;
35558;SDS011;21661;50.794;-1.066;2023-02-13T05:54:44;58.88;;;27.30;;
35558;SDS011;21661;50.794;-1.066;2023-02-13T05:57:09;60.42;;;26.75;;
35558;SDS011;21661;50.794;-1.066;2023-02-13T05:59:35;52.20;;;23.65;;
35558;SDS011;21661;50.794;-1.066;2023-02-13T06:02:00;62.33;;;26.90;;
35558;SDS011;21661;50.794;-1.066;2023-02-13T06:04:26;58.25;;;25.50;;
35558;SDS011;21661;50.794;-1.066;2023-02-13T06:06:52;52.63;;;26.67;;
35558;SDS011;21661;50.794;-1.066;2023-02-13T06:09:17;56.15;;;26.60;;
35558;SDS011;21661;50.794;-1.066;2023-02-13T06:11:43;55.45;;;26.98;;
35558;SDS011;21661;50.794;-1.066;2023-02-13T06:14:09;57.58;;;26.27;;
35558;SDS011;21661;50.794;-1.066;2023-02-13T06:16:35;59.53;;;26.73;;
35558;SDS011;21661;50.794;-1.066;2023-02-13T06:19:00;59.17;;;26.55;;
35558;SDS011;21661;50.794;-1.066;2023-02-13T06:21:26;56.70;;;26.58;;
35558;SDS011;21661;50.794;-1.066;2023-02-13T06:23:52;60.33;;;26.38;;
35558;SDS011;21661;50.794;-1.066;2023-02-13T06:26:18;57.33;;;26.67;;
35558;SDS011;21661;50.794;-1.066;2023-02-13T06:28:43;58.95;;;26.30;;
35558;SDS011;21661;50.794;-1.066;2023-02-13T06:31:09;59.63;;;27.20;;
35558;SDS011;21661;50.794;-1.066;2023-02-13T06:33:35;58.83;;;25.88;;
35558;SDS011;21661;50.794;-1.066;2023-02-13T06:36:01;55.47;;;25.20;;
35558;SDS011;21661;50.794;-1.066;2023-02-13T06:38:26;57.90;;;26.58;;
35558;SDS011;21661;50.794;-1.066;2023-02-13T06:40:52;57.60;;;25.08;;
35558;SDS011;21661;50.794;-1.066;2023-02-13T06:43:22;54.78;;;25.15;;
35558;SDS011;21661;50.794;-1.066;2023-02-13T06:45:48;53.63;;;25.58;;
35558;SDS011;21661;50.794;-1.066;2023-02-13T06:48:15;57.50;;;24.67;;
35558;SDS011;21661;50.794;-1.066;2023-02-13T06:50:41;57.53;;;25.42;;
35558;SDS011;21661;50.794;-1.066;2023-02-13T06:53:07;59.38;;;25.92;;
35558;SDS011;21661;50.794;-1.066;2023-02-13T06:55:32;57.33;;;25.98;;
35558;SDS011;21661;50.794;-1.066;2023-02-13T06:57:58;56.92;;;25.35;;
35558;SDS011;21661;50.794;-1.066;2023-02-13T07:00:23;53.88;;;25.27;;
35558;SDS011;21661;50.794;-1.066;2023-02-13T07:02:50;55.13;;;24.33;;
35558;SDS011;21661;50.794;-1.066;2023-02-13T07:05:16;59.75;;;25.98;;
35558;SDS011;21661;50.794;-1.066;2023-02-13T07:07:42;56.10;;;25.67;;
35558;SDS011;21661;50.794;-1.066;2023-02-13T07:10:09;56.20;;;25.63;;
35558;SDS011;21661;50.794;-1.066;2023-02-13T07:12:36;59.13;;;26.70;;
35558;SDS011;21661;50.794;-1.066;2023-02-13T07:15:03;54.67;;;24.55;;
35558;SDS011;21661;50.794;-1.066;2023-02-13T07:17:29;58.08;;;25.08;;
35558;SDS011;21661;50.794;-1.066;2023-02-13T07:19:55;56.17;;;23.67;;
35558;SDS011;21661;50.794;-1.066;2023-02-13T07:22:21;60.13;;;25.65;;
35558;SDS011;21661;50.794;-1.066;2023-02-13T07:24:47;55.83;;;25.58;;
35558;SDS011;21661;50.794;-1.066;2023-02-13T07:27:12;54.25;;;24.48;;
35558;SDS011;21661;50.794;-1.066;2023-02-13T07:29:38;54.80;;;24.33;;
35558;SDS011;21661;50.794;-1.066;2023-02-13T07:32:03;55.78;;;25.00;;
35558;SDS011;21661;50.794;-1.066;2023-02-13T07:34:30;57.75;;;25.77;;
35558;SDS011;21661;50.794;-1.066;2023-02-13T07:36:56;56.08;;;25.20;;
35558;SDS011;21661;50.794;-1.066;2023-02-13T07:39:22;60.25;;;25.63;;
35558;SDS011;21661;50.794;-1.066;2023-02-13T07:41:48;55.13;;;23.98;;
35558;SDS011;21661;50.794;-1.066;2023-02-13T07:44:13;55.33;;;24.35;;
35558;SDS011;21661;50.794;-1.066;2023-02-13T07:46:39;50.63;;;23.25;;
35558;SDS011;21661;50.794;-1.066;2023-02-13T07:49:04;51.13;;;23.75;;
35558;SDS011;21661;50.794;-1.066;2023-02-13T07:51:30;50.63;;;23.67;;
35558;SDS011;21661;50.794;-1.066;2023-02-13T07:53:55;52.15;;;22.58;;
35558;SDS011;21661;50.794;-1.066;2023-02-13T07:56:21;53.17;;;24.13;;
35558;SDS011;21661;50.794;-1.066;2023-02-13T07:58:47;49.38;;;21.88;;
35558;SDS011;21661;50.794;-1.066;2023-02-13T08:01:13;50.28;;;22.30;;
35558;SDS011;21661;50.794;-1.066;2023-02-13T08:03:40;52.70;;;23.02;;
35558;SDS011;21661;50.794;-1.066;2023-02-13T08:06:06;56.80;;;24.02;;
35558;SDS011;21661;50.794;-1.066;2023-02-13T08:08:32;50.58;;;22.98;;
35558;SDS011;21661;50.794;-1.066;2023-02-13T08:11:02;50.10;;;23.77;;
35558;SDS011;21661;50.794;-1.066;2023-02-13T08:13:49;57.78;;;24.60;;
35558;SDS011;21661;50.794;-1.066;2023-02-13T08:16:15;56.22;;;24.23;;
35558;SDS011;21661;50.794;-1.066;2023-02-13T08:18:40;55.90;;;25.10;;
35558;SDS011;21661;50.794;-1.066;2023-02-13T08:21:06;56.20;;;23.63;;
35558;SDS011;21661;50.794;-1.066;2023-02-13T08:23:31;50.50;;;22.77;;
35558;SDS011;21661;50.794;-1.066;2023-02-13T08:26:00;51.95;;;23.70;;
35558;SDS011;21661;50.794;-1.066;2023-02-13T08:28:27;52.70;;;24.10;;
35558;SDS011;21661;50.794;-1.066;2023-02-13T08:30:53;59.00;;;24.25;;
35558;SDS011;21661;50.794;-1.066;2023-02-13T08:33:19;54.38;;;23.35;;
35558;SDS011;21661;50.794;-1.066;2023-02-13T08:35:45;51.45;;;24.33;;
35558;SDS011;21661;50.794;-1.066;2023-02-13T08:38:12;54.88;;;24.65;;
35558;SDS011;21661;50.794;-1.066;2023-02-13T08:40:37;49.63;;;22.60;;
35558;SDS011;21661;50.794;-1.066;2023-02-13T08:43:04;49.42;;;22.80;;
35558;SDS011;21661;50.794;-1.066;2023-02-13T08:45:31;51.97;;;23.15;;
35558;SDS011;21661;50.794;-1.066;2023-02-13T08:47:58;48.95;;;23.90;;
35558;SDS011;21661;50.794;-1.066;2023-02-13T08:50:24;52.58;;;24.05;;
35558;SDS011;21661;50.794;-1.066;2023-02-13T08:52:51;46.58;;;22.88;;
35558;SDS011;21661;50.794;-1.066;2023-02-13T08:55:17;51.05;;;22.88;;
35558;SDS011;21661;50.794;-1.066;2023-02-13T08:57:43;46.40;;;22.58;;
35558;SDS011;21661;50.794;-1.066;2023-02-13T09:00:09;53.65;;;24.77;;
35558;SDS011;21661;50.794;-1.066;2023-02-13T09:02:34;48.88;;;23.38;;
35558;SDS011;21661;50.794;-1.066;2023-02-13T09:05:00;51.50;;;23.92;;
35558;SDS011;21661;50.794;-1.066;2023-02-13T09:07:26;45.83;;;22.52;;
35558;SDS011;21661;50.794;-1.066;2023-02-13T09:09:51;51.83;;;23.63;;
35558;SDS011;21661;50.794;-1.066;2023-02-13T09:12:17;52.92;;;23.88;;
35558;SDS011;21661;50.794;-1.066;2023-02-13T09:14:42;59.15;;;25.88;;
35558;SDS011;21661;50.794;-1.066;2023-02-13T09:17:08;51.30;;;23.92;;
35558;SDS011;21661;50.794;-1.066;2023-02-13T09:19:34;52.75;;;25.45;;
35558;SDS011;21661;50.794;-1.066;2023-02-13T09:21:59;51.05;;;22.67;;
35558;SDS011;21661;50.794;-1.066;2023-02-13T09:24:25;48.85;;;22.98;;
35558;SDS011;21661;50.794;-1.066;2023-02-13T09:26:51;46.05;;;22.45;;
35558;SDS011;21661;50.794;-1.066;2023-02-13T09:29:16;50.97;;;24.25;;
35558;SDS011;21661;50.794;-1.066;2023-02-13T09:31:42;49.03;;;23.15;;
35558;SDS011;21661;50.794;-1.066;2023-02-13T09:34:08;49.17;;;23.88;;
35558;SDS011;21661;50.794;-1.066;2023-02-13T09:36:33;48.20;;;22.63;;
35558;SDS011;21661;50.794;-1.066;2023-02-13T09:39:00;50.30;;;23.75;;
35558;SDS011;21661;50.794;-1.066;2023-02-13T09:41:27;50.05;;;24.25;;
35558;SDS011;21661;50.794;-1.066;2023-02-13T09:46:33;46.67;;;23.92;;
35558;SDS011;21661;50.794;-1.066;2023-02-13T09:49:04;46.00;;;21.83;;
35558;SDS011;21661;50.794;-1.066;2023-02-13T09:51:38;49.38;;;22.88;;
35558;SDS011;21661;50.794;-1.066;2023-02-13T09:54:06;45.97;;;23.00;;
35558;SDS011;21661;50.794;-1.066;2023-02-13T10:01:59;53.47;;;23.30;;
35558;SDS011;21661;50.794;-1.066;2023-02-13T10:07:29;49.47;;;23.73;;
35558;SDS011;21661;50.794;-1.066;2023-02-13T10:18:01;44.53;;;22.48;;
35558;SDS011;21661;50.794;-1.066;2023-02-13T10:20:31;45.65;;;22.05;;
35558;SDS011;21661;50.794;-1.066;2023-02-13T10:25:45;40.80;;;20.50;;
35558;SDS011;21661;50.794;-1.066;2023-02-13T10:28:13;38.90;;;21.98;;
35558;SDS011;21661;50.794;-1.066;2023-02-13T10:30:48;39.47;;;21.48;;
35558;SDS011;21661;50.794;-1.066;2023-02-13T10:33:17;38.97;;;21.58;;
35558;SDS011;21661;50.794;-1.066;2023-02-13T10:36:01;41.70;;;21.83;;
35558;SDS011;21661;50.794;-1.066;2023-02-13T10:38:33;39.50;;;20.20;;
35558;SDS011;21661;50.794;-1.066;2023-02-13T10:41:20;42.08;;;22.00;;
35558;SDS011;21661;50.794;-1.066;2023-02-13T10:46:34;41.42;;;20.77;;
35558;SDS011;21661;50.794;-1.066;2023-02-13T10:49:05;41.03;;;20.52;;
35558;SDS011;21661;50.794;-1.066;2023-02-13T10:52:05;43.28;;;22.75;;
35558;SDS011;21661;50.794;-1.066;2023-02-13T10:58:07;43.10;;;21.83;;
35558;SDS011;21661;50.794;-1.066;2023-02-13T11:02:41;42.85;;;22.98;;
35558;SDS011;21661;50.794;-1.066;2023-02-13T11:05:18;41.70;;;21.10;;
35558;SDS011;21661;50.794;-1.066;2023-02-13T11:07:46;44.00;;;21.33;;
35558;SDS011;21661;50.794;-1.066;2023-02-13T11:10:14;47.60;;;21.80;;
35558;SDS011;21661;50.794;-1.066;2023-02-13T11:12:45;45.10;;;21.35;;
35558;SDS011;21661;50.794;-1.066;2023-02-13T11:15:27;41.25;;;21.63;;
35558;SDS011;21661;50.794;-1.066;2023-02-13T11:17:59;39.38;;;21.67;;
35558;SDS011;21661;50.794;-1.066;2023-02-13T11:20:39;40.67;;;20.40;;
35558;SDS011;21661;50.794;-1.066;2023-02-13T11:28:28;39.50;;;20.85;;
35558;SDS011;21661;50.794;-1.066;2023-02-13T11:33:39;40.67;;;21.70;;
35558;SDS011;21661;50.794;-1.066;2023-02-13T11:36:06;39.67;;;21.00;;
35558;SDS011;21661;50.794;-1.066;2023-02-13T11:38:59;40.53;;;20.73;;
35558;SDS011;21661;50.794;-1.066;2023-02-13T11:41:41;42.08;;;22.23;;
35558;SDS011;21661;50.794;-1.066;2023-02-13T11:44:17;41.88;;;20.73;;
35558;SDS011;21661;50.794;-1.066;2023-02-13T11:46:50;48.88;;;22.75;;
35558;SDS011;21661;50.794;-1.066;2023-02-13T11:51:46;42.28;;;21.45;;
35558;SDS011;21661;50.794;-1.066;2023-02-13T11:54:24;39.85;;;21.00;;
35558;SDS011;21661;50.794;-1.066;2023-02-13T11:59:56;39.08;;;21.15;;
35558;SDS011;21661;50.794;-1.066;2023-02-13T12:04:48;41.40;;;20.48;;
35558;SDS011;21661;50.794;-1.066;2023-02-13T12:09:45;44.40;;;21.92;;
35558;SDS011;21661;50.794;-1.066;2023-02-13T12:12:15;42.70;;;21.80;;
35558;SDS011;21661;50.794;-1.066;2023-02-13T12:14:46;44.55;;;23.10;;
35558;SDS011;21661;50.794;-1.066;2023-02-13T12:17:16;39.00;;;21.35;;
35558;SDS011;21661;50.794;-1.066;2023-02-13T12:19:47;41.92;;;21.80;;
35558;SDS011;21661;50.794;-1.066;2023-02-13T12:28:09;47.15;;;23.50;;
35558;SDS011;21661;50.794;-1.066;2023-02-13T12:30:48;44.95;;;21.35;;
35558;SDS011;21661;50.794;-1.066;2023-02-13T12:36:43;37.83;;;20.83;;
35558;SDS011;21661;50.794;-1.066;2023-02-13T12:47:22;48.58;;;23.30;;
35558;SDS011;21661;50.794;-1.066;2023-02-13T13:04:16;48.33;;;23.23;;
35558;SDS011;21661;50.794;-1.066;2023-02-13T13:15:37;49.58;;;23.17;;
35558;SDS011;21661;50.794;-1.066;2023-02-13T13:20:59;42.40;;;23.02;;
35558;SDS011;21661;50.794;-1.066;2023-02-13T13:23:46;45.03;;;23.30;;
35558;SDS011;21661;50.794;-1.066;2023-02-13T13:29:02;43.85;;;23.00;;
35558;SDS011;21661;50.794;-1.066;2023-02-13T13:31:31;46.97;;;24.40;;
35558;SDS011;21661;50.794;-1.066;2023-02-13T13:34:01;44.63;;;23.88;;
35558;SDS011;21661;50.794;-1.066;2023-02-13T13:50:19;46.80;;;24.20;;
35558;SDS011;21661;50.794;-1.066;2023-02-13T14:06:14;45.63;;;24.40;;
35558;SDS011;21661;50.794;-1.066;2023-02-13T14:13:55;45.13;;;23.17;;
35558;SDS011;21661;50.794;-1.066;2023-02-13T14:21:53;46.00;;;25.05;;
35558;SDS011;21661;50.794;-1.066;2023-02-13T14:24:39;47.05;;;24.73;;
35558;SDS011;21661;50.794;-1.066;2023-02-13T14:27:14;46.88;;;25.15;;
35558;SDS011;21661;50.794;-1.066;2023-02-13T14:30:27;49.20;;;23.95;;
35558;SDS011;21661;50.794;-1.066;2023-02-13T14:33:02;46.30;;;25.65;;
35558;SDS011;21661;50.794;-1.066;2023-02-13T14:35:31;47.90;;;24.08;;
35558;SDS011;21661;50.794;-1.066;2023-02-13T14:38:00;49.22;;;27.38;;
35558;SDS011;21661;50.794;-1.066;2023-02-13T14:40:31;46.22;;;25.65;;
35558;SDS011;21661;50.794;-1.066;2023-02-13T14:45:48;48.53;;;25.67;;
35558;SDS011;21661;50.794;-1.066;2023-02-13T14:48:21;50.55;;;27.50;;
35558;SDS011;21661;50.794;-1.066;2023-02-13T14:50:53;56.63;;;30.27;;
35558;SDS011;21661;50.794;-1.066;2023-02-13T14:53:31;45.53;;;25.67;;
35558;SDS011;21661;50.794;-1.066;2023-02-13T14:56:13;49.25;;;25.77;;
35558;SDS011;21661;50.794;-1.066;2023-02-13T14:58:50;48.40;;;24.40;;
35558;SDS011;21661;50.794;-1.066;2023-02-13T15:01:24;50.55;;;25.13;;
35558;SDS011;21661;50.794;-1.066;2023-02-13T15:03:58;54.63;;;25.83;;
35558;SDS011;21661;50.794;-1.066;2023-02-13T15:06:48;45.42;;;25.30;;
35558;SDS011;21661;50.794;-1.066;2023-02-13T15:09:21;48.33;;;25.88;;
35558;SDS011;21661;50.794;-1.066;2023-02-13T15:11:56;50.28;;;27.38;;
35558;SDS011;21661;50.794;-1.066;2023-02-13T15:14:42;49.78;;;27.85;;
35558;SDS011;21661;50.794;-1.066;2023-02-13T15:19:42;47.80;;;25.90;;
35558;SDS011;21661;50.794;-1.066;2023-02-13T15:22:20;47.72;;;27.38;;
35558;SDS011;21661;50.794;-1.066;2023-02-13T15:24:54;49.50;;;27.23;;
35558;SDS011;21661;50.794;-1.066;2023-02-13T15:27:26;51.92;;;25.02;;
35558;SDS011;21661;50.794;-1.066;2023-02-13T15:32:31;48.70;;;25.27;;
35558;SDS011;21661;50.794;-1.066;2023-02-13T15:35:00;51.47;;;25.73;;
35558;SDS011;21661;50.794;-1.066;2023-02-13T15:37:34;49.78;;;26.17;;
35558;SDS011;21661;50.794;-1.066;2023-02-13T15:40:12;50.35;;;25.63;;
35558;SDS011;21661;50.794;-1.066;2023-02-13T15:42:58;47.80;;;26.00;;
35558;SDS011;21661;50.794;-1.066;2023-02-13T15:45:26;52.45;;;26.42;;
35558;SDS011;21661;50.794;-1.066;2023-02-13T15:47:52;57.88;;;27.08;;
35558;SDS011;21661;50.794;-1.066;2023-02-13T15:50:33;54.72;;;27.17;;
35558;SDS011;21661;50.794;-1.066;2023-02-13T15:53:01;55.17;;;27.15;;
35558;SDS011;21661;50.794;-1.066;2023-02-13T15:55:31;55.33;;;28.40;;
35558;SDS011;21661;50.794;-1.066;2023-02-13T15:57:58;53.30;;;27.85;;
35558;SDS011;21661;50.794;-1.066;2023-02-13T16:02:53;52.30;;;27.15;;
35558;SDS011;21661;50.794;-1.066;2023-02-13T16:05:21;50.92;;;27.88;;
35558;SDS011;21661;50.794;-1.066;2023-02-13T16:13:00;50.88;;;26.10;;
35558;SDS011;21661;50.794;-1.066;2023-02-13T16:15:31;56.55;;;27.98;;
35558;SDS011;21661;50.794;-1.066;2023-02-13T16:17:59;58.17;;;30.52;;
35558;SDS011;21661;50.794;-1.066;2023-02-13T16:20:28;55.22;;;28.65;;
35558;SDS011;21661;50.794;-1.066;2023-02-13T16:23:15;61.13;;;29.92;;
35558;SDS011;21661;50.794;-1.066;2023-02-13T16:25:43;58.17;;;29.75;;
35558;SDS011;21661;50.794;-1.066;2023-02-13T16:28:19;63.47;;;29.40;;
35558;SDS011;21661;50.794;-1.066;2023-02-13T16:30:51;62.78;;;31.02;;
35558;SDS011;21661;50.794;-1.066;2023-02-13T16:33:27;59.95;;;30.58;;
35558;SDS011;21661;50.794;-1.066;2023-02-13T16:35:58;57.92;;;29.33;;
35558;SDS011;21661;50.794;-1.066;2023-02-13T16:38:43;57.17;;;28.50;;
35558;SDS011;21661;50.794;-1.066;2023-02-13T16:43:50;56.08;;;28.48;;
35558;SDS011;21661;50.794;-1.066;2023-02-13T16:51:22;60.42;;;29.63;;
35558;SDS011;21661;50.794;-1.066;2023-02-13T16:59:47;57.63;;;28.60;;
35558;SDS011;21661;50.794;-1.066;2023-02-13T17:04:44;60.47;;;27.63;;
35558;SDS011;21661;50.794;-1.066;2023-02-13T17:07:14;56.53;;;29.02;;
35558;SDS011;21661;50.794;-1.066;2023-02-13T17:09:50;62.15;;;29.45;;
35558;SDS011;21661;50.794;-1.066;2023-02-13T17:12:18;62.75;;;29.60;;
35558;SDS011;21661;50.794;-1.066;2023-02-13T17:14:44;60.00;;;29.85;;
35558;SDS011;21661;50.794;-1.066;2023-02-13T17:17:15;66.05;;;32.53;;
35558;SDS011;21661;50.794;-1.066;2023-02-13T17:19:43;64.85;;;30.65;;
35558;SDS011;21661;50.794;-1.066;2023-02-13T17:24:57;60.45;;;29.77;;
35558;SDS011;21661;50.794;-1.066;2023-02-13T17:27:23;64.38;;;30.67;;
35558;SDS011;21661;50.794;-1.066;2023-02-13T17:29:49;59.45;;;29.60;;
35558;SDS011;21661;50.794;-1.066;2023-02-13T17:32:17;65.15;;;30.83;;
35558;SDS011;21661;50.794;-1.066;2023-02-13T17:34:44;62.83;;;30.48;;
35558;SDS011;21661;50.794;-1.066;2023-02-13T17:40:00;61.83;;;31.00;;
35558;SDS011;21661;50.794;-1.066;2023-02-13T17:42:26;66.47;;;31.67;;
35558;SDS011;21661;50.794;-1.066;2023-02-13T17:44:54;63.08;;;30.92;;
35558;SDS011;21661;50.794;-1.066;2023-02-13T17:47:21;62.80;;;31.45;;
35558;SDS011;21661;50.794;-1.066;2023-02-13T17:49:47;62.72;;;29.35;;
35558;SDS011;21661;50.794;-1.066;2023-02-13T17:52:17;62.35;;;31.08;;
35558;SDS011;21661;50.794;-1.066;2023-02-13T17:54:45;66.40;;;31.83;;
35558;SDS011;21661;50.794;-1.066;2023-02-13T17:57:13;65.30;;;31.35;;
35558;SDS011;21661;50.794;-1.066;2023-02-13T17:59:39;67.03;;;32.25;;
35558;SDS011;21661;50.794;-1.066;2023-02-13T18:02:12;67.30;;;32.08;;
35558;SDS011;21661;50.794;-1.066;2023-02-13T18:04:39;65.35;;;30.63;;
35558;SDS011;21661;50.794;-1.066;2023-02-13T18:07:04;68.13;;;31.35;;